createdAt,value
2023-05-21T00:01:48.551Z,17.07
2023-05-21T00:04:15.738Z,17.02
2023-05-21T00:06:42.722Z,16.99
2023-05-21T00:09:10.597Z,16.97
2023-05-21T00:11:37.603Z,16.92
2023-05-21T00:14:04.630Z,16.90
2023-05-21T00:16:31.658Z,16.87
2023-05-21T00:18:58.878Z,16.82
2023-05-21T00:21:26.403Z,16.79
2023-05-21T00:23:54.246Z,16.75
2023-05-21T00:26:21.680Z,16.72
2023-05-21T00:28:50.069Z,16.71
2023-05-21T00:31:17.317Z,16.67
2023-05-21T00:33:44.375Z,16.65
2023-05-21T00:36:14.360Z,16.62
2023-05-21T00:38:46.330Z,16.62
2023-05-21T00:41:13.804Z,16.61
2023-05-21T00:43:41.420Z,16.57
2023-05-21T00:46:13.489Z,16.58
2023-05-21T00:48:40.546Z,16.56
2023-05-21T00:51:07.592Z,16.55
2023-05-21T00:53:35.587Z,16.55
2023-05-21T00:56:03.960Z,16.54
2023-05-21T00:58:33.357Z,16.54
2023-05-21T01:01:06.929Z,16.55
2023-05-21T01:03:38.730Z,16.55
2023-05-21T01:06:08.977Z,16.55
2023-05-21T01:08:40.743Z,16.59
2023-05-21T01:11:09.884Z,16.61
2023-05-21T01:13:41.347Z,16.64
2023-05-21T01:16:10.228Z,16.66
2023-05-21T01:18:38.394Z,16.66
2023-05-21T01:21:07.500Z,16.69
2023-05-21T01:23:35.022Z,16.70
2023-05-21T01:26:02.285Z,16.72
2023-05-21T01:28:29.916Z,16.73
2023-05-21T01:31:04.954Z,16.77
2023-05-21T01:33:45.844Z,16.78
2023-05-21T01:36:40.877Z,16.78
2023-05-21T01:39:22.830Z,16.81
2023-05-21T01:41:54.745Z,16.82
2023-05-21T01:44:25.467Z,16.84
2023-05-21T01:46:56.500Z,16.84
2023-05-21T01:49:24.523Z,16.85
2023-05-21T01:51:52.137Z,16.85
2023-05-21T01:54:19.290Z,16.85
2023-05-21T01:56:47.811Z,16.86
2023-05-21T01:59:14.866Z,16.85
2023-05-21T02:01:42.152Z,16.87
2023-05-21T02:04:09.355Z,16.86
2023-05-21T02:06:36.881Z,16.86
2023-05-21T02:09:04.729Z,16.86
2023-05-21T02:11:31.882Z,16.84
2023-05-21T02:13:58.932Z,16.82
2023-05-21T02:16:25.965Z,16.77
2023-05-21T02:18:57.359Z,16.75
2023-05-21T02:21:24.602Z,16.74
2023-05-21T02:23:51.715Z,16.73
2023-05-21T02:26:18.869Z,16.71
2023-05-21T02:28:45.939Z,16.69
2023-05-21T02:31:13.004Z,16.68
2023-05-21T02:33:41.810Z,16.65
2023-05-21T02:36:12.928Z,16.64
2023-05-21T02:38:43.317Z,16.62
2023-05-21T02:41:14.007Z,16.62
2023-05-21T02:43:41.103Z,16.60
2023-05-21T02:46:08.297Z,16.59
2023-05-21T02:48:35.957Z,16.56
2023-05-21T02:51:04.519Z,16.55
2023-05-21T02:53:31.873Z,16.55
2023-05-21T02:55:58.842Z,16.53
2023-05-21T02:58:25.879Z,16.53
2023-05-21T03:00:53.702Z,16.53
2023-05-21T03:03:20.979Z,16.52
2023-05-21T03:05:48.671Z,16.51
2023-05-21T03:08:15.867Z,16.49
2023-05-21T03:10:43.257Z,16.47
2023-05-21T03:13:10.526Z,16.47
2023-05-21T03:15:39.313Z,16.46
2023-05-21T03:18:06.681Z,16.47
2023-05-21T03:20:33.865Z,16.48
2023-05-21T03:23:04.285Z,16.49
2023-05-21T03:25:31.585Z,16.48
2023-05-21T03:27:59.073Z,16.51
2023-05-21T03:30:46.287Z,16.49
2023-05-21T03:33:35.924Z,16.49
2023-05-21T03:36:14.330Z,16.49
2023-05-21T03:38:41.337Z,16.48
2023-05-21T03:41:10.251Z,16.51
2023-05-21T03:43:37.869Z,16.49
2023-05-21T03:46:05.288Z,16.51
2023-05-21T03:48:52.264Z,16.50
2023-05-21T03:51:22.834Z,16.51
2023-05-21T03:53:50.774Z,16.51
2023-05-21T03:56:18.238Z,16.51
2023-05-21T03:58:45.677Z,16.51
2023-05-21T04:01:13.286Z,16.54
2023-05-21T04:03:41.182Z,16.55
2023-05-21T04:06:10.129Z,16.56
2023-05-21T04:08:38.751Z,16.56
2023-05-21T04:11:05.823Z,16.58
2023-05-21T04:13:33.001Z,16.59
2023-05-21T04:16:00.197Z,16.59
2023-05-21T04:18:27.990Z,16.59
2023-05-21T04:20:55.159Z,16.61
2023-05-21T04:23:23.782Z,16.64
2023-05-21T04:25:52.936Z,16.67
2023-05-21T04:28:20.268Z,16.68
2023-05-21T04:30:49.824Z,16.70
2023-05-21T04:33:18.266Z,16.71
2023-05-21T04:35:49.939Z,16.72
2023-05-21T04:38:21.407Z,16.76
2023-05-21T04:40:50.887Z,16.78
2023-05-21T04:43:25.373Z,16.83
2023-05-21T04:45:56.763Z,16.84
2023-05-21T04:48:27.034Z,16.87
2023-05-21T04:50:55.891Z,16.90
2023-05-21T04:53:23.936Z,16.92
2023-05-21T04:55:50.962Z,16.95
2023-05-21T04:58:19.509Z,17.00
2023-05-21T05:00:47.518Z,17.04
2023-05-21T05:03:16.163Z,17.07
2023-05-21T05:05:44.329Z,17.11
2023-05-21T05:08:13.265Z,17.17
2023-05-21T05:10:41.652Z,17.21
2023-05-21T05:13:08.812Z,17.25
2023-05-21T05:15:36.141Z,17.27
2023-05-21T05:18:03.814Z,17.32
2023-05-21T05:20:30.837Z,17.36
2023-05-21T05:22:57.811Z,17.39
2023-05-21T05:25:25.392Z,17.44
2023-05-21T05:27:52.394Z,17.50
2023-05-21T05:30:20.593Z,17.56
2023-05-21T05:32:47.813Z,17.64
2023-05-21T05:35:14.976Z,17.72
2023-05-21T05:37:41.986Z,17.82
2023-05-21T05:40:09.418Z,17.93
2023-05-21T05:42:36.560Z,18.02
2023-05-21T05:45:11.204Z,18.15
2023-05-21T05:47:38.275Z,18.28
2023-05-21T05:50:06.677Z,18.41
2023-05-21T05:52:33.771Z,18.54
2023-05-21T05:55:00.836Z,18.65
2023-05-21T05:57:27.985Z,18.78
2023-05-21T05:59:59.256Z,18.87
2023-05-21T06:02:26.397Z,19.00
2023-05-21T06:04:54.026Z,19.14
2023-05-21T06:07:21.064Z,19.26
2023-05-21T06:09:48.090Z,19.40
2023-05-21T06:12:16.003Z,19.52
2023-05-21T06:14:45.794Z,19.66
2023-05-21T06:17:13.280Z,19.78
2023-05-21T06:19:40.424Z,19.91
2023-05-21T06:22:07.481Z,20.09
2023-05-21T06:24:34.500Z,20.28
2023-05-21T06:27:03.970Z,20.51
2023-05-21T06:29:31.653Z,20.78
2023-05-21T06:32:01.622Z,21.08
2023-05-21T06:34:28.834Z,21.39
2023-05-21T06:36:55.970Z,21.73
2023-05-21T06:39:24.501Z,22.04
2023-05-21T06:41:51.542Z,22.28
2023-05-21T06:44:38.900Z,22.50
2023-05-21T06:47:16.842Z,22.73
2023-05-21T06:49:44.263Z,22.94
2023-05-21T06:52:11.316Z,23.10
2023-05-21T06:54:38.507Z,23.23
2023-05-21T06:57:06.860Z,23.33
2023-05-21T06:59:33.987Z,23.42
2023-05-21T07:02:04.369Z,23.50
2023-05-21T07:04:32.003Z,23.54
2023-05-21T07:06:59.183Z,23.56
2023-05-21T07:09:26.297Z,23.61
2023-05-21T07:11:53.427Z,23.64
2023-05-21T07:14:21.381Z,23.66
2023-05-21T07:16:48.450Z,23.69
2023-05-21T07:19:15.784Z,23.75
2023-05-21T07:21:43.743Z,23.82
2023-05-21T07:24:11.468Z,23.92
2023-05-21T07:26:41.138Z,24.04
2023-05-21T07:29:08.170Z,24.18
2023-05-21T07:31:35.322Z,24.34
2023-05-21T07:34:02.427Z,24.50
2023-05-21T07:36:33.465Z,24.72
2023-05-21T07:39:01.631Z,25.00
2023-05-21T07:41:29.423Z,25.41
2023-05-21T07:43:58.564Z,25.94
2023-05-21T07:46:25.765Z,26.71
2023-05-21T07:48:55.576Z,27.45
2023-05-21T07:51:22.707Z,28.07
2023-05-21T07:53:50.224Z,28.76
2023-05-21T07:56:21.076Z,29.66
2023-05-21T07:58:48.635Z,30.54
2023-05-21T08:01:16.233Z,31.32
2023-05-21T08:03:43.356Z,32.02
2023-05-21T08:06:10.508Z,32.44
2023-05-21T08:08:37.523Z,32.58
2023-05-21T08:11:04.683Z,32.59
2023-05-21T08:13:31.679Z,32.54
2023-05-21T08:15:58.949Z,32.39
2023-05-21T08:18:27.258Z,32.13
2023-05-21T08:20:56.669Z,31.94
2023-05-21T08:23:25.194Z,31.88
2023-05-21T08:25:55.155Z,31.86
2023-05-21T08:28:23.505Z,31.92
2023-05-21T08:30:52.203Z,31.96
2023-05-21T08:33:21.113Z,31.85
2023-05-21T08:35:48.840Z,31.77
2023-05-21T08:38:28.699Z,31.89
2023-05-21T08:41:07.749Z,32.17
2023-05-21T08:43:38.784Z,32.48
2023-05-21T08:46:09.495Z,32.69
2023-05-21T08:48:39.216Z,32.82
2023-05-21T08:51:06.410Z,32.87
2023-05-21T08:53:38.441Z,32.80
2023-05-21T08:56:09.574Z,32.86
2023-05-21T08:58:47.249Z,33.21
2023-05-21T09:01:19.341Z,33.67
2023-05-21T09:03:51.701Z,34.14
2023-05-21T09:06:19.730Z,34.70
2023-05-21T09:09:02.872Z,35.33
2023-05-21T09:11:39.592Z,35.68
2023-05-21T09:14:07.360Z,35.63
2023-05-21T09:16:51.412Z,35.32
2023-05-21T09:19:22.649Z,34.88
2023-05-21T09:21:52.838Z,34.38
2023-05-21T09:24:25.406Z,33.97
2023-05-21T09:26:52.927Z,33.67
2023-05-21T09:29:20.338Z,33.50
2023-05-21T09:31:47.785Z,33.40
2023-05-21T09:34:15.159Z,33.22
2023-05-21T09:36:43.933Z,32.97
2023-05-21T09:39:16.314Z,32.68
2023-05-21T09:41:43.866Z,32.44
2023-05-21T09:44:11.233Z,32.18
2023-05-21T09:46:42.732Z,31.98
2023-05-21T09:49:26.445Z,31.77
2023-05-21T09:51:57.908Z,31.60
2023-05-21T09:54:26.453Z,31.44
2023-05-21T09:56:53.681Z,31.36
2023-05-21T09:59:21.748Z,31.71
2023-05-21T10:01:52.132Z,32.63
2023-05-21T10:04:19.966Z,33.19
2023-05-21T10:06:50.086Z,33.28
2023-05-21T10:09:19.340Z,33.33
2023-05-21T10:11:51.102Z,33.72
2023-05-21T10:14:22.432Z,34.04
2023-05-21T10:16:54.161Z,34.04
2023-05-21T10:19:24.944Z,33.85
2023-05-21T10:21:54.055Z,33.56
2023-05-21T10:24:22.149Z,33.24
2023-05-21T10:26:49.516Z,32.97
2023-05-21T10:29:19.829Z,32.73
2023-05-21T10:31:49.864Z,32.74
2023-05-21T10:34:17.535Z,33.37
2023-05-21T10:36:46.243Z,34.45
2023-05-21T10:39:15.252Z,35.51
2023-05-21T10:42:24.679Z,35.96
2023-05-21T10:45:34.700Z,36.05
2023-05-21T10:48:24.981Z,36.34
2023-05-21T10:51:35.820Z,36.43
2023-05-21T10:54:52.884Z,36.77
2023-05-21T10:57:47.598Z,36.63
2023-05-21T11:00:18.156Z,36.25
2023-05-21T11:02:46.845Z,35.68
2023-05-21T11:05:13.996Z,35.13
2023-05-21T11:08:01.559Z,35.27
2023-05-21T11:10:40.610Z,35.76
2023-05-21T11:13:12.018Z,36.20
2023-05-21T11:15:57.844Z,36.44
2023-05-21T11:18:33.958Z,36.70
2023-05-21T11:21:15.916Z,36.87
2023-05-21T11:24:04.768Z,36.98
2023-05-21T11:26:50.383Z,36.93
2023-05-21T11:29:18.568Z,36.49
2023-05-21T11:32:02.633Z,35.87
2023-05-21T11:34:47.832Z,35.52
2023-05-21T11:37:21.784Z,35.27
2023-05-21T11:39:50.472Z,35.10
2023-05-21T11:42:42.418Z,34.93
2023-05-21T11:45:10.557Z,34.73
2023-05-21T11:47:37.680Z,34.55
2023-05-21T11:50:05.495Z,34.23
2023-05-21T11:52:33.143Z,33.91
2023-05-21T11:55:00.460Z,33.56
2023-05-21T11:57:31.017Z,33.15
2023-05-21T12:00:01.454Z,32.76
2023-05-21T12:02:32.774Z,32.41
2023-05-21T12:05:00.389Z,32.11
2023-05-21T12:07:31.766Z,31.89
2023-05-21T12:10:00.889Z,31.57
2023-05-21T12:12:35.615Z,31.33
2023-05-21T12:15:10.372Z,31.22
2023-05-21T12:17:37.552Z,31.24
2023-05-21T12:20:08.154Z,31.18
2023-05-21T12:22:35.254Z,31.06
2023-05-21T12:25:04.271Z,30.96
2023-05-21T12:27:33.375Z,30.85
2023-05-21T12:30:01.176Z,30.81
2023-05-21T12:32:29.254Z,30.72
2023-05-21T12:34:56.620Z,30.66
2023-05-21T12:37:35.582Z,30.61
2023-05-21T12:40:07.764Z,30.52
2023-05-21T12:42:34.859Z,30.49
2023-05-21T12:45:07.898Z,30.33
2023-05-21T12:47:35.575Z,30.23
2023-05-21T12:50:07.912Z,30.15
2023-05-21T12:52:34.941Z,30.11
2023-05-21T12:55:02.111Z,30.05
2023-05-21T12:57:38.706Z,29.98
2023-05-21T13:00:07.756Z,29.87
2023-05-21T13:02:40.774Z,29.71
2023-05-21T13:05:10.636Z,29.67
2023-05-21T13:07:39.723Z,29.68
2023-05-21T13:10:08.003Z,29.62
2023-05-21T13:12:35.714Z,29.53
2023-05-21T13:15:06.115Z,29.48
2023-05-21T13:17:35.441Z,29.42
2023-05-21T13:20:14.957Z,29.33
2023-05-21T13:22:46.382Z,29.30
2023-05-21T13:25:18.274Z,29.26
2023-05-21T13:27:50.090Z,29.25
2023-05-21T13:30:18.380Z,29.25
2023-05-21T13:32:46.674Z,29.26
2023-05-21T13:35:16.314Z,29.27
2023-05-21T13:37:43.385Z,29.24
2023-05-21T13:40:14.367Z,29.21
2023-05-21T13:42:42.497Z,29.11
2023-05-21T13:45:13.455Z,29.09
2023-05-21T13:47:41.674Z,29.11
2023-05-21T13:50:09.878Z,29.21
2023-05-21T13:52:38.975Z,29.32
2023-05-21T13:55:07.065Z,29.38
2023-05-21T13:57:34.195Z,29.30
2023-05-21T14:00:01.510Z,29.16
2023-05-21T14:02:30.174Z,29.10
2023-05-21T14:04:57.460Z,29.06
2023-05-21T14:07:24.451Z,29.06
2023-05-21T14:09:52.322Z,29.00
2023-05-21T14:12:19.411Z,28.97
2023-05-21T14:14:49.563Z,28.95
2023-05-21T14:17:16.909Z,28.86
2023-05-21T14:19:43.992Z,28.72
2023-05-21T14:22:11.225Z,28.57
2023-05-21T14:24:38.279Z,28.46
2023-05-21T14:27:05.579Z,28.42
2023-05-21T14:29:33.255Z,28.35
2023-05-21T14:32:01.569Z,28.32
2023-05-21T14:34:28.615Z,28.36
2023-05-21T14:36:55.677Z,28.42
2023-05-21T14:39:22.717Z,28.46
2023-05-21T14:41:49.992Z,28.42
2023-05-21T14:44:16.998Z,28.30
2023-05-21T14:46:44.040Z,28.20
2023-05-21T14:49:12.172Z,28.12
2023-05-21T14:51:39.121Z,28.07
2023-05-21T14:54:06.331Z,28.04
2023-05-21T14:56:33.284Z,28.00
2023-05-21T14:59:00.370Z,27.98
2023-05-21T15:01:27.392Z,27.98
2023-05-21T15:03:56.765Z,28.00
2023-05-21T15:06:24.227Z,28.02
2023-05-21T15:08:51.182Z,28.01
2023-05-21T15:11:18.273Z,28.03
2023-05-21T15:13:45.321Z,28.08
2023-05-21T15:16:12.373Z,28.09
2023-05-21T15:18:39.418Z,28.08
2023-05-21T15:21:06.980Z,28.07
2023-05-21T15:23:33.994Z,28.04
2023-05-21T15:26:01.079Z,28.00
2023-05-21T15:28:28.151Z,27.99
2023-05-21T15:30:55.147Z,27.99
2023-05-21T15:33:22.223Z,28.00
2023-05-21T15:35:49.283Z,28.03
2023-05-21T15:38:16.388Z,28.07
2023-05-21T15:40:44.201Z,28.05
2023-05-21T15:43:11.257Z,27.96
2023-05-21T15:45:38.865Z,27.85
2023-05-21T15:48:07.049Z,27.79
2023-05-21T15:50:35.615Z,27.73
2023-05-21T15:53:04.752Z,27.67
2023-05-21T15:55:35.175Z,27.64
2023-05-21T15:58:05.710Z,27.58
2023-05-21T16:00:34.560Z,27.52
2023-05-21T16:03:02.338Z,27.48
2023-05-21T16:05:29.561Z,27.44
2023-05-21T16:07:57.781Z,27.41
2023-05-21T16:10:24.900Z,27.39
2023-05-21T16:12:51.972Z,27.37
2023-05-21T16:15:19.079Z,27.35
2023-05-21T16:17:46.549Z,27.34
2023-05-21T16:20:13.839Z,27.34
2023-05-21T16:22:40.842Z,27.36
2023-05-21T16:25:08.558Z,27.35
2023-05-21T16:27:36.562Z,27.31
2023-05-21T16:30:04.251Z,27.28
2023-05-21T16:32:31.884Z,27.28
2023-05-21T16:34:59.148Z,27.30
2023-05-21T16:37:26.916Z,27.31
2023-05-21T16:39:53.966Z,27.30
2023-05-21T16:42:21.130Z,27.29
2023-05-21T16:44:48.129Z,27.27
2023-05-21T16:47:15.202Z,27.23
2023-05-21T16:49:42.251Z,27.22
2023-05-21T16:52:09.401Z,27.19
2023-05-21T16:54:36.419Z,27.16
2023-05-21T16:57:03.522Z,27.11
2023-05-21T16:59:30.648Z,27.08
2023-05-21T17:01:57.954Z,27.04
2023-05-21T17:04:25.473Z,27.00
2023-05-21T17:06:52.536Z,26.96
2023-05-21T17:09:19.558Z,26.92
2023-05-21T17:11:46.571Z,26.90
2023-05-21T17:14:20.279Z,26.86
2023-05-21T17:16:54.103Z,26.83
2023-05-21T17:19:21.284Z,26.81
2023-05-21T17:21:48.397Z,26.80
2023-05-21T17:24:15.856Z,26.79
2023-05-21T17:26:42.945Z,26.77
2023-05-21T17:29:11.159Z,26.76
2023-05-21T17:31:38.191Z,26.74
2023-05-21T17:34:05.404Z,26.74
2023-05-21T17:36:32.435Z,26.72
2023-05-21T17:38:59.572Z,26.71
2023-05-21T17:41:26.779Z,26.69
2023-05-21T17:43:53.863Z,26.68
2023-05-21T17:46:20.914Z,26.64
2023-05-21T17:48:47.898Z,26.62
2023-05-21T17:51:15.104Z,26.58
2023-05-21T17:53:42.107Z,26.55
2023-05-21T17:56:11.209Z,26.52
2023-05-21T17:58:38.248Z,26.48
2023-05-21T18:01:05.431Z,26.43
2023-05-21T18:03:32.515Z,26.38
2023-05-21T18:05:59.526Z,26.32
2023-05-21T18:08:26.926Z,26.26
2023-05-21T18:10:54.000Z,26.19
2023-05-21T18:13:21.044Z,26.15
2023-05-21T18:15:48.269Z,26.11
2023-05-21T18:18:19.195Z,26.06
2023-05-21T18:20:49.473Z,26.01
2023-05-21T18:23:17.503Z,25.98
2023-05-21T18:25:44.470Z,25.91
2023-05-21T18:28:11.716Z,25.86
2023-05-21T18:30:38.960Z,25.79
2023-05-21T18:33:08.180Z,25.74
2023-05-21T18:35:35.358Z,25.67
2023-05-21T18:38:04.008Z,25.61
2023-05-21T18:40:33.159Z,25.56
2023-05-21T18:43:00.616Z,25.49
2023-05-21T18:45:27.968Z,25.43
2023-05-21T18:47:55.630Z,25.36
2023-05-21T18:50:22.751Z,25.28
2023-05-21T18:52:53.391Z,25.24
2023-05-21T18:55:20.774Z,25.17
2023-05-21T18:57:47.980Z,25.10
2023-05-21T19:00:15.529Z,25.03
2023-05-21T19:02:43.977Z,24.95
2023-05-21T19:05:12.535Z,24.90
2023-05-21T19:07:41.233Z,24.82
2023-05-21T19:10:12.596Z,24.76
2023-05-21T19:12:41.769Z,24.66
2023-05-21T19:15:09.972Z,24.60
2023-05-21T19:17:38.998Z,24.53
2023-05-21T19:20:10.045Z,24.47
2023-05-21T19:22:37.314Z,24.39
2023-05-21T19:25:04.928Z,24.34
2023-05-21T19:27:32.385Z,24.27
2023-05-21T19:29:59.471Z,24.67
2023-05-21T19:32:26.503Z,24.48
2023-05-21T19:34:53.519Z,24.30
2023-05-21T19:37:20.594Z,24.20
2023-05-21T19:39:49.952Z,24.08
2023-05-21T19:42:21.258Z,24.01
2023-05-21T19:44:48.368Z,23.92
2023-05-21T19:47:15.340Z,23.86
2023-05-21T19:49:42.458Z,23.81
2023-05-21T19:52:10.359Z,23.76
2023-05-21T19:54:37.372Z,23.71
2023-05-21T19:57:04.622Z,23.66
2023-05-21T19:59:31.841Z,23.61
2023-05-21T20:01:58.973Z,23.57
2023-05-21T20:04:27.248Z,23.53
2023-05-21T20:06:54.310Z,23.47
2023-05-21T20:09:21.276Z,23.41
2023-05-21T20:11:48.610Z,23.39
2023-05-21T20:14:15.846Z,23.35
2023-05-21T20:16:42.854Z,23.31
2023-05-21T20:19:10.831Z,23.26
2023-05-21T20:21:37.999Z,23.22
2023-05-21T20:24:05.720Z,23.19
2023-05-21T20:26:34.892Z,23.14
2023-05-21T20:29:02.010Z,23.11
2023-05-21T20:31:29.466Z,23.09
2023-05-21T20:33:56.608Z,23.05
2023-05-21T20:36:23.773Z,23.03
2023-05-21T20:38:50.913Z,23.01
2023-05-21T20:41:25.221Z,23.00
2023-05-21T20:43:52.252Z,22.95
2023-05-21T20:46:19.906Z,22.91
2023-05-21T20:48:47.235Z,22.86
2023-05-21T20:51:14.236Z,22.80
2023-05-21T20:53:41.311Z,22.75
2023-05-21T20:56:11.539Z,22.73
2023-05-21T20:58:39.838Z,22.69
2023-05-21T21:01:07.542Z,22.62
2023-05-21T21:03:34.658Z,22.57
2023-05-21T21:06:04.138Z,22.51
2023-05-21T21:08:31.546Z,22.44
2023-05-21T21:10:58.544Z,22.40
2023-05-21T21:13:25.831Z,22.35
2023-05-21T21:15:53.005Z,22.30
2023-05-21T21:18:20.040Z,22.26
2023-05-21T21:20:49.490Z,22.22
2023-05-21T21:23:16.765Z,22.18
2023-05-21T21:25:44.002Z,22.12
2023-05-21T21:28:11.071Z,22.09
2023-05-21T21:30:40.950Z,22.04
2023-05-21T21:33:08.580Z,21.99
2023-05-21T21:35:35.964Z,21.94
2023-05-21T21:38:04.819Z,21.89
2023-05-21T21:40:31.856Z,21.84
2023-05-21T21:42:59.255Z,21.80
2023-05-21T21:45:26.760Z,21.76
2023-05-21T21:47:53.809Z,21.72
2023-05-21T21:50:20.865Z,21.68
2023-05-21T21:52:48.789Z,21.64
2023-05-21T21:55:15.847Z,21.61
2023-05-21T21:57:42.884Z,21.56
2023-05-21T22:00:11.296Z,21.54
2023-05-21T22:02:40.072Z,21.48
2023-05-21T22:05:08.678Z,21.45
2023-05-21T22:07:38.643Z,21.41
2023-05-21T22:10:06.572Z,21.36
2023-05-21T22:12:33.958Z,21.32
2023-05-21T22:15:05.482Z,21.29
2023-05-21T22:17:33.029Z,21.22
2023-05-21T22:20:03.363Z,21.18
2023-05-21T22:22:30.835Z,21.13
2023-05-21T22:24:57.814Z,21.10
2023-05-21T22:27:24.803Z,21.07
2023-05-21T22:29:51.820Z,21.03
2023-05-21T22:32:18.848Z,20.99
2023-05-21T22:34:46.045Z,20.96
2023-05-21T22:37:13.469Z,20.94
2023-05-21T22:39:40.646Z,20.90
2023-05-21T22:42:07.929Z,20.89
2023-05-21T22:44:34.982Z,20.86
2023-05-21T22:47:03.230Z,20.84
2023-05-21T22:49:32.665Z,20.81
2023-05-21T22:52:04.919Z,20.79
2023-05-21T22:54:32.933Z,20.77
2023-05-21T22:57:01.521Z,20.74
2023-05-21T22:59:29.346Z,20.72
2023-05-21T23:01:56.587Z,20.70
2023-05-21T23:04:35.597Z,20.67
2023-05-21T23:07:07.946Z,20.63
2023-05-21T23:09:34.930Z,20.62
2023-05-21T23:12:02.099Z,20.59
2023-05-21T23:14:29.050Z,20.57
2023-05-21T23:17:01.781Z,20.56
2023-05-21T23:19:29.540Z,20.52
2023-05-21T23:21:56.899Z,20.50
2023-05-21T23:24:23.883Z,20.48
2023-05-21T23:26:51.021Z,20.44
2023-05-21T23:29:18.899Z,20.43
2023-05-21T23:31:46.811Z,20.41
2023-05-21T23:34:14.180Z,20.39
2023-05-21T23:36:41.227Z,20.37
2023-05-21T23:39:08.263Z,20.36
2023-05-21T23:41:35.273Z,20.34
2023-05-21T23:44:02.329Z,20.33
2023-05-21T23:46:29.384Z,20.32
2023-05-21T23:48:56.366Z,20.29
2023-05-21T23:51:23.469Z,20.29
2023-05-21T23:53:50.518Z,20.27
2023-05-21T23:56:17.515Z,20.25
2023-05-21T23:58:44.514Z,20.24
